Flight Track Log - Related Links

Times and Time Zones

All times are in EDT time to prevent confusion due to time zone crossing. See the AAL1013 flight status page for this flight to view local times or setup timezone preferences in your user account.

Time Position Orientation Groundspeed Altitude Reporting Facility
EDT Latitude Longitude Course Direction KTS MPH feet Rate Location/Type
Sat 02:29:26 PM 32.8833 -97.0500 275° West 165 190 1,200  Level Dallas / Fort Worth TRACON
Sat 02:30:44 PM 32.8167 -97.0667 192° South 236 272 3,600 2,417 Climbing Dallas / Fort Worth TRACON
Sat 02:31:00 PM 32.6892 -97.1038 257° West  Level FlightAware Approximate
Sat 02:31:45 PM 32.7500 -97.0833 192° South 244 281 6,800  Level Dallas / Fort Worth TRACON
Sat 02:32:00 PM 32.6833 -97.2399 270° West  Level FlightAware Approximate
Sat 02:33:00 PM 32.6931 -97.3763 275° West  Level FlightAware Approximate
Sat 02:33:22 PM 32.7475 -97.2183 269° West 294 338 9,600  Level Fort Worth Center
Sat 02:34:00 PM 32.7036 -97.5126 275° West  Level FlightAware Approximate
Sat 02:34:22 PM 32.7353 -97.3047 260° West 288 331 11,300  Level Fort Worth Center
Sat 02:35:22 PM 32.7164 -97.4086 258° West 296 341 13,800 2,450 Climbing Fort Worth Center
Sat 02:36:22 PM 32.6978 -97.4950 256° West 296 341 16,200 2,100 Climbing Fort Worth Center
Sat 02:37:22 PM 32.6683 -97.6033 252° West 310 357 18,000 1,450 Climbing Fort Worth Center
Sat 02:38:22 PM 32.6408 -97.6994 251° West 328 377 19,100 1,300 Climbing Fort Worth Center
Sat 02:39:22 PM 32.6072 -97.8228 252° West 357 411 20,600 1,500 Climbing Fort Worth Center
Sat 02:40:22 PM 32.5756 -97.9336 251° West 386 444 22,100 1,300 Climbing Fort Worth Center
Sat 02:41:22 PM 32.5372 -98.0714 252° West 392 451 23,200 1,350 Climbing Fort Worth Center
Sat 02:42:22 PM 32.5053 -98.1919 253° West 416 479 24,800 1,550 Climbing Fort Worth Center
Sat 02:43:22 PM 32.4772 -98.3244 256° West 421 484 26,300 1,250 Climbing Fort Worth Center
Sat 02:44:22 PM 32.4469 -98.4597 255° West 421 484 27,300 1,200 Climbing Fort Worth Center
Sat 02:45:22 PM 32.4144 -98.5972 254° West 427 491 28,700 1,600 Climbing Fort Worth Center
Sat 02:46:22 PM 32.3881 -98.7344 257° West 434 499 30,500 1,550 Climbing Fort Worth Center
Sat 02:47:22 PM 32.3636 -98.8619 257° West 421 484 31,800 750 Climbing Fort Worth Center
Sat 02:48:22 PM 32.2811 -98.9444 220° Southwest 390 449 32,000 100 Climbing Fort Worth Center
Sat 02:49:22 PM 32.1739 -99.0039 205° Southwest 389 448 32,000  Level Fort Worth Center
Sat 02:50:22 PM 32.0711 -99.0561 203° Southwest 402 463 32,000  Level Fort Worth Center
Sat 02:51:22 PM 31.9639 -99.1128 204° Southwest 410 472 32,000  Level Fort Worth Center
Sat 02:52:22 PM 31.8608 -99.1672 204° Southwest 415 478 32,000  Level Fort Worth Center
Sat 02:53:53 PM 31.7081 -99.2467 204° Southwest 410 472 32,000  Level Houston Center
Sat 02:54:55 PM 31.6019 -99.3025 204° Southwest 414 476 32,000  Level Houston Center
Sat 02:55:57 PM 31.4761 -99.3683 204° Southwest 418 481 32,000  Level Houston Center
Sat 02:56:58 PM 31.3700 -99.4231 204° Southwest 414 476 32,000 -49 Level Houston Center
Sat 02:58:00 PM 31.2625 -99.4783 204° Southwest 416 479 31,900  Descending Houston Center
Sat 02:59:02 PM 31.1536 -99.5314 203° Southwest 421 484 32,000  Climbing Houston Center
Sat 03:00:04 PM 31.0472 -99.5869 204° Southwest 421 484 31,900 -49 Descending Houston Center
Sat 03:01:05 PM 30.9417 -99.6422 204° Southwest 417 480 31,900  Level Houston Center
Sat 03:02:07 PM 30.8347 -99.6956 203° Southwest 418 481 31,900  Level Houston Center
Sat 03:03:09 PM 30.7289 -99.7511 204° Southwest 418 481 31,900  Level Houston Center
Sat 03:04:11 PM 30.6011 -99.8147 203° Southwest 415 478 31,900  Level Houston Center
Sat 03:05:12 PM 30.4903 -99.8564 198° South 416 479 31,900  Level Houston Center
Sat 03:06:14 PM 30.3803 -99.8994 199° South 416 479 31,900  Level Houston Center
Sat 03:07:16 PM 30.2708 -99.9397 198° South 412 474 31,900  Level Houston Center
Sat 03:08:17 PM 30.1581 -99.9811 198° South 420 483 31,900  Level Houston Center
Sat 03:09:19 PM 30.0464 -100.0217 197° South 415 478 31,900  Level Houston Center
Sat 03:10:21 PM 29.9336 -100.0622 197° South 416 479 31,900  Level Houston Center
Sat 03:11:22 PM 29.8214 -100.1044 198° South 417 480 31,900  Level Houston Center
Sat 03:12:24 PM 29.7103 -100.1461 198° South 417 480 31,900  Level Houston Center
Sat 03:13:26 PM 29.5781 -100.1950 198° South 414 476 31,900  Level Houston Center
Sat 03:14:27 PM 29.4675 -100.2356 198° South 415 478 31,900  Level Houston Center
Sat 03:15:29 PM 29.3581 -100.2767 198° South 414 476 31,900  Level Houston Center
Sat 03:16:31 PM 29.2489 -100.3150 197° South 411 473 31,900  Level Houston Center
Sat 03:17:32 PM 29.1403 -100.3558 198° South 409 471 31,900  Level Houston Center
Sat 03:18:34 PM 29.0311 -100.3933 197° South 411 473 31,900  Level Houston Center
Sat 03:19:35 PM 28.9219 -100.4336 198° South 411 473 31,900  Level Houston Center
Sat 03:20:37 PM 28.8103 -100.4728 197° South 417 480 31,900  Level Houston Center
Sat 03:22:00 PM 28.6653 -100.5194 194° South  Level FlightAware Approximate
Sat 03:29:00 PM 27.9792 -100.8941 207° Southwest  Level FlightAware Approximate
Sat 03:30:00 PM 27.8817 -100.9489 206° Southwest  Level FlightAware Approximate
Sat 03:31:00 PM 27.7841 -101.0036 206° Southwest  Level FlightAware Approximate
Sat 03:32:00 PM 27.6865 -101.0582 206° Southwest  Level FlightAware Approximate
Sat 03:33:00 PM 27.5889 -101.1127 206° Southwest  Level FlightAware Approximate
Sat 03:34:00 PM 27.4912 -101.1671 206° Southwest  Level FlightAware Approximate
Sat 03:35:00 PM 27.3936 -101.2214 206° Southwest  Level FlightAware Approximate
Sat 03:36:00 PM 27.2959 -101.2756 206° Southwest  Level FlightAware Approximate
Sat 03:37:00 PM 27.1982 -101.3297 206° Southwest  Level FlightAware Approximate
Sat 03:38:00 PM 27.1005 -101.3837 206° Southwest  Level FlightAware Approximate
Sat 03:39:00 PM 27.0027 -101.4376 206° Southwest  Level FlightAware Approximate
Sat 03:40:00 PM 26.9190 -101.5109 232° Southwest  Level FlightAware Approximate
Sat 03:41:00 PM 26.8517 -101.6069 232° Southwest  Level FlightAware Approximate
Sat 03:42:00 PM 26.7843 -101.7028 232° Southwest  Level FlightAware Approximate
Sat 03:43:00 PM 26.7168 -101.7985 232° Southwest  Level FlightAware Approximate
Sat 03:44:00 PM 26.6493 -101.8941 232° Southwest  Level FlightAware Approximate
Sat 03:45:00 PM 26.5809 -101.9889 231° Southwest  Level FlightAware Approximate
Sat 03:46:00 PM 26.5121 -102.0834 231° Southwest  Level FlightAware Approximate
Sat 03:47:00 PM 26.4435 -102.1779 231° Southwest  Level FlightAware Approximate
Sat 03:48:00 PM 26.3749 -102.2723 231° Southwest  Level FlightAware Approximate
Sat 03:49:00 PM 26.3063 -102.3667 231° Southwest  Level FlightAware Approximate
Sat 03:50:00 PM 26.2376 -102.4609 231° Southwest  Level FlightAware Approximate
Sat 03:51:00 PM 26.1664 -102.5528 229° Southwest  Level FlightAware Approximate
Sat 03:52:00 PM 26.0965 -102.6457 232° Southwest  Level FlightAware Approximate
Sat 03:53:00 PM 26.0297 -102.7415 232° Southwest  Level FlightAware Approximate
Sat 03:54:00 PM 25.9628 -102.8371 232° Southwest  Level FlightAware Approximate
Sat 03:55:00 PM 25.8959 -102.9327 232° Southwest  Level FlightAware Approximate
Sat 03:56:00 PM 25.8290 -103.0281 232° Southwest  Level FlightAware Approximate
Sat 03:57:00 PM 25.7619 -103.1234 232° Southwest  Level FlightAware Approximate
Sat 03:58:00 PM 25.6948 -103.2187 232° Southwest  Level FlightAware Approximate
Sat 03:59:00 PM 25.6276 -103.3138 232° Southwest  Level FlightAware Approximate
Sat 04:00:00 PM 25.5584 -103.4064 215° Southwest  Level FlightAware Approximate
Sat 04:01:00 PM 25.4688 -103.4750 215° Southwest  Level FlightAware Approximate
Sat 04:02:00 PM 25.3791 -103.5434 215° Southwest  Level FlightAware Approximate
Sat 04:03:00 PM 25.2894 -103.6118 215° Southwest  Level FlightAware Approximate
Sat 04:04:00 PM 25.1998 -103.6801 215° Southwest  Level FlightAware Approximate
Sat 04:05:00 PM 25.1100 -103.7483 215° Southwest  Level FlightAware Approximate
Sat 04:06:00 PM 25.0203 -103.8164 215° Southwest  Level FlightAware Approximate
Sat 04:07:00 PM 24.9305 -103.8843 214° Southwest  Level FlightAware Approximate
Sat 04:08:00 PM 24.8406 -103.9522 214° Southwest  Level FlightAware Approximate
Sat 04:09:00 PM 24.7508 -104.0200 214° Southwest  Level FlightAware Approximate
Sat 04:10:00 PM 24.6610 -104.0879 216° Southwest  Level FlightAware Approximate
Sat 04:11:00 PM 24.5730 -104.1584 216° Southwest  Level FlightAware Approximate
Sat 04:12:00 PM 24.4849 -104.2289 216° Southwest  Level FlightAware Approximate
Sat 04:13:00 PM 24.3969 -104.2993 216° Southwest  Level FlightAware Approximate
Sat 04:14:00 PM 24.3085 -104.3691 215° Southwest  Level FlightAware Approximate
Sat 04:15:00 PM 24.2194 -104.4378 215° Southwest  Level FlightAware Approximate
Sat 04:16:00 PM 24.1302 -104.5063 215° Southwest  Level FlightAware Approximate
Sat 04:17:00 PM 24.0248 -104.5277 186° South  Level FlightAware Approximate
Sat 04:18:00 PM 23.9165 -104.5407 186° South  Level FlightAware Approximate
Sat 04:19:00 PM 23.8083 -104.5537 186° South  Level FlightAware Approximate
Sat 04:20:00 PM 23.7000 -104.5667 186° South  Level FlightAware Approximate
Sat 04:21:00 PM 23.5918 -104.5796 186° South  Level FlightAware Approximate
Sat 04:22:00 PM 23.4835 -104.5925 186° South  Level FlightAware Approximate
Sat 04:23:00 PM 23.3752 -104.6054 186° South  Level FlightAware Approximate
Sat 04:24:00 PM 23.2670 -104.6183 186° South  Level FlightAware Approximate
Sat 04:25:00 PM 23.1587 -104.6312 186° South  Level FlightAware Approximate
Sat 04:26:00 PM 23.0505 -104.6440 186° South  Level FlightAware Approximate
Sat 04:27:00 PM 22.9421 -104.6553 185° South  Level FlightAware Approximate
Sat 04:28:00 PM 22.8335 -104.6651 185° South  Level FlightAware Approximate
Sat 04:29:00 PM 22.7261 -104.6833 180° South  Level FlightAware Approximate
Sat 04:30:00 PM 22.6172 -104.6833 180° South  Level FlightAware Approximate
Sat 04:31:00 PM 22.5091 -104.6957 189° South  Level FlightAware Approximate
Sat 04:32:00 PM 22.4015 -104.7136 189° South  Level FlightAware Approximate
Sat 04:33:00 PM 22.2934 -104.7275 186° South  Level FlightAware Approximate
Sat 04:34:00 PM 22.1851 -104.7405 186° South  Level FlightAware Approximate
Sat 04:35:00 PM 22.0769 -104.7535 186° South  Level FlightAware Approximate
Sat 04:36:00 PM 21.9686 -104.7664 186° South  Level FlightAware Approximate
Sat 04:37:00 PM 21.8607 -104.7818 188° South  Level FlightAware Approximate
Sat 04:38:00 PM 21.7524 -104.7946 186° South  Level FlightAware Approximate
Sat 04:39:00 PM 21.6441 -104.8071 186° South  Level FlightAware Approximate
Sat 04:40:00 PM 21.5358 -104.8196 186° South  Level FlightAware Approximate
Sat 04:41:00 PM 21.4275 -104.8321 186° South  Level FlightAware Approximate
Sat 04:42:00 PM 21.3319 -104.8860 207° Southwest  Level FlightAware Approximate
Sat 04:43:00 PM 21.2352 -104.9397 207° Southwest  Level FlightAware Approximate
Sat 04:44:00 PM 21.1369 -104.9899 205° Southwest  Level FlightAware Approximate
Sat 04:45:00 PM 21.0382 -105.0393 205° Southwest  Level FlightAware Approximate
Sat 04:46:00 PM 20.9431 -105.0960 210° Southwest  Level FlightAware Approximate
Sat 04:47:00 PM 20.8471 -105.1464 212° Southwest  Level FlightAware Approximate

Login

Don't have an account? Register now (free) for customized features, flight alerts, and more!